Terminal Aerodrome Forecast
Issued by NWS

Home | Current Version | Previous Version | Text Only | Print | Product List | Glossary On
Versions: 1 2 3 4 5 6 7 8 9 10 11 12 13 14 15 16 17 18 19 20 21 22 23 24 25 26 27 28 29 30
000
FTPA31 PHFO 281000 AAB
TAFMDY
TAF AMD
PMDY 281006Z 2810/2906 35008KT P6SM SCT030
      TEMPO 2810/2813 BKN025
     FM281300 01010KT P6SM SCT025
     FM282000 02008KT P6SM SCT025 SCT040
      AMD LTD TO CLD AND WIND=

USA.gov is the U.S. government's official web portal to all federal, state and local government web resources and services.